sensor_id;sensor_type;location;lat;lon;timestamp;P1;durP1;ratioP1;P2;durP2;ratioP2
80195;SDS011;69516;42.050;21.516;2023-07-20T00:02:16;22.40;;;7.78;;
80195;SDS011;69516;42.050;21.516;2023-07-20T00:04:42;23.42;;;8.32;;
80195;SDS011;69516;42.050;21.516;2023-07-20T00:07:08;21.52;;;7.93;;
80195;SDS011;69516;42.050;21.516;2023-07-20T00:09:34;22.05;;;7.95;;
80195;SDS011;69516;42.050;21.516;2023-07-20T00:12:00;21.00;;;7.85;;
80195;SDS011;69516;42.050;21.516;2023-07-20T00:14:27;30.10;;;8.05;;
80195;SDS011;69516;42.050;21.516;2023-07-20T00:16:54;22.83;;;7.75;;
80195;SDS011;69516;42.050;21.516;2023-07-20T00:19:27;20.48;;;7.70;;
80195;SDS011;69516;42.050;21.516;2023-07-20T00:21:54;24.52;;;7.65;;
80195;SDS011;69516;42.050;21.516;2023-07-20T00:24:20;23.45;;;8.10;;
80195;SDS011;69516;42.050;21.516;2023-07-20T00:26:46;24.23;;;7.78;;
80195;SDS011;69516;42.050;21.516;2023-07-20T00:29:13;14.23;;;7.15;;
80195;SDS011;69516;42.050;21.516;2023-07-20T00:31:39;22.13;;;7.53;;
80195;SDS011;69516;42.050;21.516;2023-07-20T00:34:05;25.00;;;7.80;;
80195;SDS011;69516;42.050;21.516;2023-07-20T00:36:32;22.40;;;8.45;;
80195;SDS011;69516;42.050;21.516;2023-07-20T00:38:58;20.00;;;7.55;;
80195;SDS011;69516;42.050;21.516;2023-07-20T00:41:24;18.73;;;7.57;;
80195;SDS011;69516;42.050;21.516;2023-07-20T00:43:54;31.55;;;8.57;;
80195;SDS011;69516;42.050;21.516;2023-07-20T00:46:21;19.35;;;7.63;;
80195;SDS011;69516;42.050;21.516;2023-07-20T00:48:49;17.48;;;7.78;;
80195;SDS011;69516;42.050;21.516;2023-07-20T00:51:15;15.38;;;6.90;;
80195;SDS011;69516;42.050;21.516;2023-07-20T00:53:42;20.05;;;7.75;;
80195;SDS011;69516;42.050;21.516;2023-07-20T00:56:08;17.75;;;7.90;;
80195;SDS011;69516;42.050;21.516;2023-07-20T00:58:34;15.93;;;7.53;;
80195;SDS011;69516;42.050;21.516;2023-07-20T01:01:01;18.35;;;7.70;;
80195;SDS011;69516;42.050;21.516;2023-07-20T01:03:27;18.02;;;7.57;;
80195;SDS011;69516;42.050;21.516;2023-07-20T01:08:43;18.25;;;8.00;;
80195;SDS011;69516;42.050;21.516;2023-07-20T01:11:19;19.35;;;7.80;;
80195;SDS011;69516;42.050;21.516;2023-07-20T01:13:50;20.33;;;7.15;;
80195;SDS011;69516;42.050;21.516;2023-07-20T01:16:16;16.65;;;7.72;;
80195;SDS011;69516;42.050;21.516;2023-07-20T01:18:42;19.48;;;7.50;;
80195;SDS011;69516;42.050;21.516;2023-07-20T01:21:09;17.00;;;7.03;;
80195;SDS011;69516;42.050;21.516;2023-07-20T01:31:51;22.98;;;7.20;;
80195;SDS011;69516;42.050;21.516;2023-07-20T01:34:18;18.98;;;7.18;;
80195;SDS011;69516;42.050;21.516;2023-07-20T01:36:45;16.92;;;6.55;;
80195;SDS011;69516;42.050;21.516;2023-07-20T01:39:12;21.45;;;5.95;;
80195;SDS011;69516;42.050;21.516;2023-07-20T01:41:39;18.58;;;6.50;;
80195;SDS011;69516;42.050;21.516;2023-07-20T01:44:05;22.83;;;6.55;;
80195;SDS011;69516;42.050;21.516;2023-07-20T01:46:31;20.00;;;6.50;;
80195;SDS011;69516;42.050;21.516;2023-07-20T01:48:57;16.95;;;6.30;;
80195;SDS011;69516;42.050;21.516;2023-07-20T01:51:23;17.42;;;6.20;;
80195;SDS011;69516;42.050;21.516;2023-07-20T01:53:50;18.35;;;5.88;;
80195;SDS011;69516;42.050;21.516;2023-07-20T01:56:16;19.35;;;6.78;;
80195;SDS011;69516;42.050;21.516;2023-07-20T01:58:42;14.68;;;5.97;;
80195;SDS011;69516;42.050;21.516;2023-07-20T02:01:08;25.98;;;7.03;;
80195;SDS011;69516;42.050;21.516;2023-07-20T02:03:34;15.13;;;5.82;;
80195;SDS011;69516;42.050;21.516;2023-07-20T02:06:00;19.60;;;6.30;;
80195;SDS011;69516;42.050;21.516;2023-07-20T02:08:26;18.00;;;6.47;;
80195;SDS011;69516;42.050;21.516;2023-07-20T02:10:52;16.45;;;5.80;;
80195;SDS011;69516;42.050;21.516;2023-07-20T02:13:19;15.95;;;6.03;;
80195;SDS011;69516;42.050;21.516;2023-07-20T02:15:45;14.05;;;6.57;;
80195;SDS011;69516;42.050;21.516;2023-07-20T02:18:12;19.77;;;6.35;;
80195;SDS011;69516;42.050;21.516;2023-07-20T02:20:38;14.35;;;6.15;;
80195;SDS011;69516;42.050;21.516;2023-07-20T02:23:06;19.42;;;6.40;;
80195;SDS011;69516;42.050;21.516;2023-07-20T02:25:32;19.17;;;6.55;;
80195;SDS011;69516;42.050;21.516;2023-07-20T02:27:58;21.33;;;6.32;;
80195;SDS011;69516;42.050;21.516;2023-07-20T02:30:24;13.77;;;6.53;;
80195;SDS011;69516;42.050;21.516;2023-07-20T02:32:50;12.95;;;6.53;;
80195;SDS011;69516;42.050;21.516;2023-07-20T02:35:16;20.40;;;6.93;;
80195;SDS011;69516;42.050;21.516;2023-07-20T02:37:42;16.83;;;6.80;;
80195;SDS011;69516;42.050;21.516;2023-07-20T02:40:09;15.82;;;7.00;;
80195;SDS011;69516;42.050;21.516;2023-07-20T02:42:35;16.35;;;6.55;;
80195;SDS011;69516;42.050;21.516;2023-07-20T02:45:02;15.50;;;7.13;;
80195;SDS011;69516;42.050;21.516;2023-07-20T02:47:29;14.45;;;6.78;;
80195;SDS011;69516;42.050;21.516;2023-07-20T02:49:56;14.02;;;6.90;;
80195;SDS011;69516;42.050;21.516;2023-07-20T02:52:22;17.38;;;6.78;;
80195;SDS011;69516;42.050;21.516;2023-07-20T02:54:49;17.17;;;7.15;;
80195;SDS011;69516;42.050;21.516;2023-07-20T02:57:15;17.88;;;7.28;;
80195;SDS011;69516;42.050;21.516;2023-07-20T02:59:41;19.40;;;6.70;;
80195;SDS011;69516;42.050;21.516;2023-07-20T03:02:07;17.85;;;7.15;;
80195;SDS011;69516;42.050;21.516;2023-07-20T03:04:36;26.38;;;7.68;;
80195;SDS011;69516;42.050;21.516;2023-07-20T03:07:04;15.90;;;6.95;;
80195;SDS011;69516;42.050;21.516;2023-07-20T03:09:32;35.42;;;8.82;;
80195;SDS011;69516;42.050;21.516;2023-07-20T03:11:58;20.02;;;7.30;;
80195;SDS011;69516;42.050;21.516;2023-07-20T03:14:24;17.23;;;7.43;;
80195;SDS011;69516;42.050;21.516;2023-07-20T03:16:50;14.80;;;6.45;;
80195;SDS011;69516;42.050;21.516;2023-07-20T03:19:16;18.98;;;7.07;;
80195;SDS011;69516;42.050;21.516;2023-07-20T03:21:43;22.33;;;7.22;;
80195;SDS011;69516;42.050;21.516;2023-07-20T03:24:09;19.85;;;7.07;;
80195;SDS011;69516;42.050;21.516;2023-07-20T03:26:35;18.15;;;7.05;;
80195;SDS011;69516;42.050;21.516;2023-07-20T03:29:02;19.52;;;6.85;;
80195;SDS011;69516;42.050;21.516;2023-07-20T03:31:28;16.30;;;7.28;;
80195;SDS011;69516;42.050;21.516;2023-07-20T03:33:54;19.45;;;7.53;;
80195;SDS011;69516;42.050;21.516;2023-07-20T03:36:20;17.77;;;7.07;;
80195;SDS011;69516;42.050;21.516;2023-07-20T03:38:47;17.48;;;6.88;;
80195;SDS011;69516;42.050;21.516;2023-07-20T03:41:13;19.30;;;6.35;;
80195;SDS011;69516;42.050;21.516;2023-07-20T03:43:41;16.58;;;6.85;;
80195;SDS011;69516;42.050;21.516;2023-07-20T03:46:07;19.85;;;6.78;;
80195;SDS011;69516;42.050;21.516;2023-07-20T03:48:33;17.92;;;6.70;;
80195;SDS011;69516;42.050;21.516;2023-07-20T03:51:00;19.75;;;6.95;;
80195;SDS011;69516;42.050;21.516;2023-07-20T03:53:26;20.83;;;6.57;;
80195;SDS011;69516;42.050;21.516;2023-07-20T03:55:52;17.23;;;6.20;;
80195;SDS011;69516;42.050;21.516;2023-07-20T03:58:19;15.82;;;6.07;;
80195;SDS011;69516;42.050;21.516;2023-07-20T04:00:47;17.25;;;6.38;;
80195;SDS011;69516;42.050;21.516;2023-07-20T04:03:14;13.32;;;6.03;;
80195;SDS011;69516;42.050;21.516;2023-07-20T04:05:40;13.02;;;5.88;;
80195;SDS011;69516;42.050;21.516;2023-07-20T04:08:07;16.05;;;5.97;;
80195;SDS011;69516;42.050;21.516;2023-07-20T04:10:33;14.27;;;5.70;;
80195;SDS011;69516;42.050;21.516;2023-07-20T04:13:00;16.67;;;5.88;;
80195;SDS011;69516;42.050;21.516;2023-07-20T04:15:26;11.52;;;5.55;;
80195;SDS011;69516;42.050;21.516;2023-07-20T04:17:52;21.92;;;7.20;;
80195;SDS011;69516;42.050;21.516;2023-07-20T04:20:18;20.23;;;5.80;;
80195;SDS011;69516;42.050;21.516;2023-07-20T04:22:44;21.48;;;6.18;;
80195;SDS011;69516;42.050;21.516;2023-07-20T04:25:11;17.08;;;5.55;;
80195;SDS011;69516;42.050;21.516;2023-07-20T04:27:37;18.52;;;5.97;;
80195;SDS011;69516;42.050;21.516;2023-07-20T04:30:03;13.18;;;5.00;;
80195;SDS011;69516;42.050;21.516;2023-07-20T04:32:29;10.75;;;5.07;;
80195;SDS011;69516;42.050;21.516;2023-07-20T04:34:58;14.02;;;5.75;;
80195;SDS011;69516;42.050;21.516;2023-07-20T04:37:25;12.23;;;5.55;;
80195;SDS011;69516;42.050;21.516;2023-07-20T04:39:52;18.73;;;5.57;;
80195;SDS011;69516;42.050;21.516;2023-07-20T04:42:18;11.98;;;5.18;;
80195;SDS011;69516;42.050;21.516;2023-07-20T04:44:45;13.93;;;5.30;;
80195;SDS011;69516;42.050;21.516;2023-07-20T04:47:11;12.13;;;5.03;;
80195;SDS011;69516;42.050;21.516;2023-07-20T04:49:37;14.52;;;5.28;;
80195;SDS011;69516;42.050;21.516;2023-07-20T04:52:04;15.40;;;5.55;;
80195;SDS011;69516;42.050;21.516;2023-07-20T04:54:30;19.70;;;5.85;;
80195;SDS011;69516;42.050;21.516;2023-07-20T04:56:56;16.08;;;5.05;;
80195;SDS011;69516;42.050;21.516;2023-07-20T04:59:22;14.70;;;4.50;;
80195;SDS011;69516;42.050;21.516;2023-07-20T05:01:49;13.93;;;4.72;;
80195;SDS011;69516;42.050;21.516;2023-07-20T05:04:15;14.00;;;4.38;;
80195;SDS011;69516;42.050;21.516;2023-07-20T05:06:41;17.58;;;5.57;;
80195;SDS011;69516;42.050;21.516;2023-07-20T05:09:07;21.17;;;7.35;;
80195;SDS011;69516;42.050;21.516;2023-07-20T05:11:34;19.70;;;7.60;;
80195;SDS011;69516;42.050;21.516;2023-07-20T05:14:00;20.58;;;8.38;;
80195;SDS011;69516;42.050;21.516;2023-07-20T05:16:26;21.52;;;8.50;;
80195;SDS011;69516;42.050;21.516;2023-07-20T05:18:52;24.52;;;8.30;;
80195;SDS011;69516;42.050;21.516;2023-07-20T05:21:18;17.15;;;7.53;;
80195;SDS011;69516;42.050;21.516;2023-07-20T05:23:44;23.75;;;8.32;;
80195;SDS011;69516;42.050;21.516;2023-07-20T05:26:10;20.10;;;7.90;;
80195;SDS011;69516;42.050;21.516;2023-07-20T05:28:36;17.20;;;7.15;;
80195;SDS011;69516;42.050;21.516;2023-07-20T05:31:03;18.30;;;7.22;;
80195;SDS011;69516;42.050;21.516;2023-07-20T05:33:29;19.08;;;7.53;;
80195;SDS011;69516;42.050;21.516;2023-07-20T05:35:55;23.23;;;7.53;;
80195;SDS011;69516;42.050;21.516;2023-07-20T05:38:21;20.08;;;7.65;;
80195;SDS011;69516;42.050;21.516;2023-07-20T05:40:48;22.42;;;7.80;;
80195;SDS011;69516;42.050;21.516;2023-07-20T05:43:14;16.17;;;6.85;;
80195;SDS011;69516;42.050;21.516;2023-07-20T05:45:43;16.40;;;7.40;;
80195;SDS011;69516;42.050;21.516;2023-07-20T05:48:10;15.10;;;7.13;;
80195;SDS011;69516;42.050;21.516;2023-07-20T05:50:37;15.27;;;6.53;;
80195;SDS011;69516;42.050;21.516;2023-07-20T05:53:03;18.55;;;6.63;;
80195;SDS011;69516;42.050;21.516;2023-07-20T05:55:29;17.92;;;6.63;;
80195;SDS011;69516;42.050;21.516;2023-07-20T05:57:55;16.85;;;6.85;;
80195;SDS011;69516;42.050;21.516;2023-07-20T06:00:21;19.20;;;7.65;;
80195;SDS011;69516;42.050;21.516;2023-07-20T06:02:52;18.00;;;6.32;;
80195;SDS011;69516;42.050;21.516;2023-07-20T06:05:18;18.92;;;6.43;;
80195;SDS011;69516;42.050;21.516;2023-07-20T06:10:12;18.45;;;6.97;;
80195;SDS011;69516;42.050;21.516;2023-07-20T06:12:38;14.85;;;6.13;;
80195;SDS011;69516;42.050;21.516;2023-07-20T06:15:04;17.90;;;6.68;;
80195;SDS011;69516;42.050;21.516;2023-07-20T06:17:31;18.60;;;6.38;;
80195;SDS011;69516;42.050;21.516;2023-07-20T06:19:58;17.77;;;7.38;;
80195;SDS011;69516;42.050;21.516;2023-07-20T06:22:24;18.73;;;7.00;;
80195;SDS011;69516;42.050;21.516;2023-07-20T06:24:50;16.25;;;7.25;;
80195;SDS011;69516;42.050;21.516;2023-07-20T06:27:16;17.80;;;6.93;;
80195;SDS011;69516;42.050;21.516;2023-07-20T06:29:42;17.73;;;6.97;;
80195;SDS011;69516;42.050;21.516;2023-07-20T06:32:08;19.95;;;6.63;;
80195;SDS011;69516;42.050;21.516;2023-07-20T06:34:34;12.32;;;6.57;;
80195;SDS011;69516;42.050;21.516;2023-07-20T06:37:03;14.10;;;6.50;;
80195;SDS011;69516;42.050;21.516;2023-07-20T06:39:30;17.85;;;6.70;;
80195;SDS011;69516;42.050;21.516;2023-07-20T06:41:56;18.63;;;6.40;;
80195;SDS011;69516;42.050;21.516;2023-07-20T06:44:22;20.27;;;6.60;;
80195;SDS011;69516;42.050;21.516;2023-07-20T06:46:48;15.73;;;5.85;;
80195;SDS011;69516;42.050;21.516;2023-07-20T06:49:24;19.67;;;6.70;;
80195;SDS011;69516;42.050;21.516;2023-07-20T06:51:51;15.23;;;6.40;;
80195;SDS011;69516;42.050;21.516;2023-07-20T06:54:17;15.90;;;6.05;;
80195;SDS011;69516;42.050;21.516;2023-07-20T06:56:43;16.88;;;6.28;;
80195;SDS011;69516;42.050;21.516;2023-07-20T06:59:10;15.23;;;6.75;;
80195;SDS011;69516;42.050;21.516;2023-07-20T07:01:36;13.45;;;5.57;;
80195;SDS011;69516;42.050;21.516;2023-07-20T07:04:02;12.60;;;6.18;;
80195;SDS011;69516;42.050;21.516;2023-07-20T07:06:28;18.85;;;6.15;;
80195;SDS011;69516;42.050;21.516;2023-07-20T07:08:55;22.60;;;6.68;;
80195;SDS011;69516;42.050;21.516;2023-07-20T07:11:21;15.05;;;6.35;;
80195;SDS011;69516;42.050;21.516;2023-07-20T07:13:48;17.95;;;6.72;;
80195;SDS011;69516;42.050;21.516;2023-07-20T07:16:16;14.57;;;6.35;;
80195;SDS011;69516;42.050;21.516;2023-07-20T07:18:47;16.50;;;6.03;;
80195;SDS011;69516;42.050;21.516;2023-07-20T07:21:13;16.77;;;6.97;;
80195;SDS011;69516;42.050;21.516;2023-07-20T07:23:39;17.60;;;6.95;;
80195;SDS011;69516;42.050;21.516;2023-07-20T07:26:05;15.82;;;6.53;;
80195;SDS011;69516;42.050;21.516;2023-07-20T07:28:31;14.77;;;7.00;;
80195;SDS011;69516;42.050;21.516;2023-07-20T07:30:58;17.52;;;6.70;;
80195;SDS011;69516;42.050;21.516;2023-07-20T07:33:24;13.52;;;6.72;;
80195;SDS011;69516;42.050;21.516;2023-07-20T07:35:50;20.25;;;6.95;;
80195;SDS011;69516;42.050;21.516;2023-07-20T07:38:19;19.58;;;6.95;;
80195;SDS011;69516;42.050;21.516;2023-07-20T07:40:45;14.70;;;7.07;;
80195;SDS011;69516;42.050;21.516;2023-07-20T07:43:12;18.60;;;7.15;;
80195;SDS011;69516;42.050;21.516;2023-07-20T07:45:39;19.33;;;6.72;;
80195;SDS011;69516;42.050;21.516;2023-07-20T07:48:05;16.25;;;6.43;;
80195;SDS011;69516;42.050;21.516;2023-07-20T07:50:32;19.52;;;7.40;;
80195;SDS011;69516;42.050;21.516;2023-07-20T07:52:58;20.30;;;7.18;;
80195;SDS011;69516;42.050;21.516;2023-07-20T07:55:24;20.67;;;6.65;;
80195;SDS011;69516;42.050;21.516;2023-07-20T07:57:53;17.63;;;7.43;;
80195;SDS011;69516;42.050;21.516;2023-07-20T08:00:20;17.65;;;7.25;;
80195;SDS011;69516;42.050;21.516;2023-07-20T08:02:46;17.75;;;7.22;;
80195;SDS011;69516;42.050;21.516;2023-07-20T08:05:15;17.85;;;7.68;;
80195;SDS011;69516;42.050;21.516;2023-07-20T08:07:41;17.63;;;7.60;;
80195;SDS011;69516;42.050;21.516;2023-07-20T08:10:08;15.00;;;7.63;;
80195;SDS011;69516;42.050;21.516;2023-07-20T08:12:34;17.80;;;7.50;;
80195;SDS011;69516;42.050;21.516;2023-07-20T08:15:00;15.23;;;6.88;;
80195;SDS011;69516;42.050;21.516;2023-07-20T08:17:27;17.77;;;7.60;;
80195;SDS011;69516;42.050;21.516;2023-07-20T08:19:53;15.48;;;6.93;;
80195;SDS011;69516;42.050;21.516;2023-07-20T08:22:19;16.52;;;7.60;;
80195;SDS011;69516;42.050;21.516;2023-07-20T08:24:45;16.98;;;7.53;;
80195;SDS011;69516;42.050;21.516;2023-07-20T08:27:11;16.42;;;7.05;;
80195;SDS011;69516;42.050;21.516;2023-07-20T08:29:38;16.95;;;7.20;;
80195;SDS011;69516;42.050;21.516;2023-07-20T08:32:05;16.05;;;7.38;;
80195;SDS011;69516;42.050;21.516;2023-07-20T08:34:32;14.48;;;6.47;;
80195;SDS011;69516;42.050;21.516;2023-07-20T08:36:58;17.02;;;6.82;;
80195;SDS011;69516;42.050;21.516;2023-07-20T08:39:24;15.13;;;6.80;;
80195;SDS011;69516;42.050;21.516;2023-07-20T08:41:51;15.82;;;6.97;;
80195;SDS011;69516;42.050;21.516;2023-07-20T08:44:17;16.08;;;6.90;;
80195;SDS011;69516;42.050;21.516;2023-07-20T08:46:43;16.08;;;6.97;;
80195;SDS011;69516;42.050;21.516;2023-07-20T08:49:10;14.93;;;6.50;;
80195;SDS011;69516;42.050;21.516;2023-07-20T08:51:36;13.18;;;6.40;;
80195;SDS011;69516;42.050;21.516;2023-07-20T08:54:03;15.50;;;6.78;;
80195;SDS011;69516;42.050;21.516;2023-07-20T08:56:29;16.25;;;6.57;;
80195;SDS011;69516;42.050;21.516;2023-07-20T08:58:56;15.85;;;6.78;;
80195;SDS011;69516;42.050;21.516;2023-07-20T09:01:23;20.23;;;6.90;;
80195;SDS011;69516;42.050;21.516;2023-07-20T09:03:49;12.90;;;6.75;;
80195;SDS011;69516;42.050;21.516;2023-07-20T09:06:15;14.52;;;6.70;;
80195;SDS011;69516;42.050;21.516;2023-07-20T09:08:42;14.38;;;6.95;;
80195;SDS011;69516;42.050;21.516;2023-07-20T09:11:11;14.95;;;6.43;;
80195;SDS011;69516;42.050;21.516;2023-07-20T09:13:38;16.13;;;7.03;;
80195;SDS011;69516;42.050;21.516;2023-07-20T09:16:05;14.05;;;6.18;;
80195;SDS011;69516;42.050;21.516;2023-07-20T09:18:32;14.75;;;6.28;;
80195;SDS011;69516;42.050;21.516;2023-07-20T09:21:02;11.25;;;5.93;;
80195;SDS011;69516;42.050;21.516;2023-07-20T09:23:29;18.90;;;6.90;;
80195;SDS011;69516;42.050;21.516;2023-07-20T09:25:57;15.27;;;6.47;;
80195;SDS011;69516;42.050;21.516;2023-07-20T09:28:24;13.52;;;6.40;;
80195;SDS011;69516;42.050;21.516;2023-07-20T09:30:51;12.50;;;5.80;;
80195;SDS011;69516;42.050;21.516;2023-07-20T09:33:23;16.02;;;5.80;;
80195;SDS011;69516;42.050;21.516;2023-07-20T09:35:49;14.77;;;6.13;;
80195;SDS011;69516;42.050;21.516;2023-07-20T09:38:16;12.10;;;5.63;;
80195;SDS011;69516;42.050;21.516;2023-07-20T09:40:42;11.68;;;5.90;;
80195;SDS011;69516;42.050;21.516;2023-07-20T09:43:08;13.40;;;5.88;;
80195;SDS011;69516;42.050;21.516;2023-07-20T09:45:35;14.60;;;6.57;;
80195;SDS011;69516;42.050;21.516;2023-07-20T09:48:08;12.23;;;5.82;;
80195;SDS011;69516;42.050;21.516;2023-07-20T09:50:41;12.95;;;6.03;;
80195;SDS011;69516;42.050;21.516;2023-07-20T09:53:07;13.07;;;5.97;;
80195;SDS011;69516;42.050;21.516;2023-07-20T09:55:35;14.60;;;6.32;;
80195;SDS011;69516;42.050;21.516;2023-07-20T09:58:01;13.45;;;5.78;;
80195;SDS011;69516;42.050;21.516;2023-07-20T10:00:28;13.23;;;6.20;;
80195;SDS011;69516;42.050;21.516;2023-07-20T10:02:54;14.52;;;6.05;;
80195;SDS011;69516;42.050;21.516;2023-07-20T10:05:21;16.33;;;6.32;;
80195;SDS011;69516;42.050;21.516;2023-07-20T10:07:49;16.23;;;6.82;;
80195;SDS011;69516;42.050;21.516;2023-07-20T10:10:16;14.45;;;6.18;;
80195;SDS011;69516;42.050;21.516;2023-07-20T10:12:46;12.60;;;6.20;;
80195;SDS011;69516;42.050;21.516;2023-07-20T10:15:20;15.32;;;6.45;;
80195;SDS011;69516;42.050;21.516;2023-07-20T10:18:29;17.10;;;5.85;;
80195;SDS011;69516;42.050;21.516;2023-07-20T10:20:36;14.02;;;6.22;;
80195;SDS011;69516;42.050;21.516;2023-07-20T10:23:04;18.48;;;6.57;;
80195;SDS011;69516;42.050;21.516;2023-07-20T10:25:31;15.15;;;7.05;;
80195;SDS011;69516;42.050;21.516;2023-07-20T10:27:58;13.75;;;6.07;;
80195;SDS011;69516;42.050;21.516;2023-07-20T10:30:24;12.27;;;6.43;;
80195;SDS011;69516;42.050;21.516;2023-07-20T10:32:52;12.25;;;6.38;;
80195;SDS011;69516;42.050;21.516;2023-07-20T10:35:18;12.13;;;5.88;;
80195;SDS011;69516;42.050;21.516;2023-07-20T10:38:00;16.08;;;6.32;;
80195;SDS011;69516;42.050;21.516;2023-07-20T10:40:31;12.80;;;6.53;;
80195;SDS011;69516;42.050;21.516;2023-07-20T10:43:02;14.40;;;6.65;;
80195;SDS011;69516;42.050;21.516;2023-07-20T10:48:14;11.68;;;6.13;;
80195;SDS011;69516;42.050;21.516;2023-07-20T10:50:41;16.92;;;6.20;;
80195;SDS011;69516;42.050;21.516;2023-07-20T10:53:11;13.05;;;5.90;;
80195;SDS011;69516;42.050;21.516;2023-07-20T10:55:41;13.05;;;6.55;;
80195;SDS011;69516;42.050;21.516;2023-07-20T10:58:09;15.65;;;6.40;;
80195;SDS011;69516;42.050;21.516;2023-07-20T11:00:36;12.05;;;6.00;;
80195;SDS011;69516;42.050;21.516;2023-07-20T11:03:03;12.77;;;6.25;;
80195;SDS011;69516;42.050;21.516;2023-07-20T11:05:33;11.95;;;5.90;;
80195;SDS011;69516;42.050;21.516;2023-07-20T11:08:00;13.80;;;6.45;;
80195;SDS011;69516;42.050;21.516;2023-07-20T11:10:28;12.80;;;6.35;;
80195;SDS011;69516;42.050;21.516;2023-07-20T11:16:01;14.15;;;6.47;;
80195;SDS011;69516;42.050;21.516;2023-07-20T11:18:32;14.38;;;6.65;;
80195;SDS011;69516;42.050;21.516;2023-07-20T11:20:58;10.68;;;5.53;;
80195;SDS011;69516;42.050;21.516;2023-07-20T11:23:25;18.17;;;6.65;;
80195;SDS011;69516;42.050;21.516;2023-07-20T11:25:52;12.10;;;6.05;;
80195;SDS011;69516;42.050;21.516;2023-07-20T11:28:18;11.90;;;6.15;;
80195;SDS011;69516;42.050;21.516;2023-07-20T11:30:44;15.70;;;6.25;;
80195;SDS011;69516;42.050;21.516;2023-07-20T11:33:11;15.63;;;6.22;;
80195;SDS011;69516;42.050;21.516;2023-07-20T11:35:44;13.57;;;6.65;;
80195;SDS011;69516;42.050;21.516;2023-07-20T11:38:13;14.02;;;6.05;;
80195;SDS011;69516;42.050;21.516;2023-07-20T11:40:43;12.57;;;6.47;;
80195;SDS011;69516;42.050;21.516;2023-07-20T11:43:10;13.68;;;5.88;;
80195;SDS011;69516;42.050;21.516;2023-07-20T11:45:37;15.10;;;6.65;;
80195;SDS011;69516;42.050;21.516;2023-07-20T11:48:03;13.90;;;6.90;;
80195;SDS011;69516;42.050;21.516;2023-07-20T11:50:30;17.02;;;6.57;;
80195;SDS011;69516;42.050;21.516;2023-07-20T11:52:57;10.52;;;6.15;;
80195;SDS011;69516;42.050;21.516;2023-07-20T11:55:23;16.90;;;6.18;;
80195;SDS011;69516;42.050;21.516;2023-07-20T11:58:02;12.02;;;6.25;;
80195;SDS011;69516;42.050;21.516;2023-07-20T12:00:28;15.25;;;6.00;;
80195;SDS011;69516;42.050;21.516;2023-07-20T12:02:55;13.68;;;5.70;;
80195;SDS011;69516;42.050;21.516;2023-07-20T12:05:24;13.30;;;6.18;;
80195;SDS011;69516;42.050;21.516;2023-07-20T12:07:51;15.57;;;6.18;;
80195;SDS011;69516;42.050;21.516;2023-07-20T12:10:23;16.30;;;6.97;;
80195;SDS011;69516;42.050;21.516;2023-07-20T12:12:50;13.90;;;6.57;;
80195;SDS011;69516;42.050;21.516;2023-07-20T12:15:19;18.20;;;6.45;;
80195;SDS011;69516;42.050;21.516;2023-07-20T12:17:46;15.75;;;6.95;;
80195;SDS011;69516;42.050;21.516;2023-07-20T12:20:12;14.82;;;6.40;;
80195;SDS011;69516;42.050;21.516;2023-07-20T12:22:39;11.77;;;6.13;;
80195;SDS011;69516;42.050;21.516;2023-07-20T12:25:09;14.43;;;6.15;;
80195;SDS011;69516;42.050;21.516;2023-07-20T12:27:36;14.85;;;6.22;;
80195;SDS011;69516;42.050;21.516;2023-07-20T12:30:06;12.32;;;5.93;;
80195;SDS011;69516;42.050;21.516;2023-07-20T12:32:33;16.55;;;6.43;;
80195;SDS011;69516;42.050;21.516;2023-07-20T12:34:59;18.15;;;7.03;;
80195;SDS011;69516;42.050;21.516;2023-07-20T12:37:26;14.38;;;5.82;;
80195;SDS011;69516;42.050;21.516;2023-07-20T12:39:52;13.20;;;6.45;;
80195;SDS011;69516;42.050;21.516;2023-07-20T12:42:18;13.85;;;6.45;;
80195;SDS011;69516;42.050;21.516;2023-07-20T12:44:45;15.20;;;6.05;;
80195;SDS011;69516;42.050;21.516;2023-07-20T12:47:11;13.85;;;6.65;;
80195;SDS011;69516;42.050;21.516;2023-07-20T12:49:37;12.38;;;6.43;;
80195;SDS011;69516;42.050;21.516;2023-07-20T12:52:04;11.90;;;6.22;;
80195;SDS011;69516;42.050;21.516;2023-07-20T12:54:31;15.82;;;6.50;;
80195;SDS011;69516;42.050;21.516;2023-07-20T12:56:57;15.27;;;6.50;;
80195;SDS011;69516;42.050;21.516;2023-07-20T12:59:24;17.70;;;6.40;;
80195;SDS011;69516;42.050;21.516;2023-07-20T13:01:50;15.70;;;7.07;;
80195;SDS011;69516;42.050;21.516;2023-07-20T13:04:16;14.60;;;6.35;;
80195;SDS011;69516;42.050;21.516;2023-07-20T13:06:43;16.92;;;6.68;;
80195;SDS011;69516;42.050;21.516;2023-07-20T13:09:09;12.30;;;6.15;;
80195;SDS011;69516;42.050;21.516;2023-07-20T13:11:35;13.88;;;6.03;;
80195;SDS011;69516;42.050;21.516;2023-07-20T13:14:01;15.15;;;6.60;;
80195;SDS011;69516;42.050;21.516;2023-07-20T13:16:28;14.60;;;6.57;;
80195;SDS011;69516;42.050;21.516;2023-07-20T13:18:55;16.77;;;6.82;;
80195;SDS011;69516;42.050;21.516;2023-07-20T13:21:21;14.63;;;6.53;;
80195;SDS011;69516;42.050;21.516;2023-07-20T13:23:48;13.65;;;6.47;;
80195;SDS011;69516;42.050;21.516;2023-07-20T13:26:15;15.55;;;6.80;;
80195;SDS011;69516;42.050;21.516;2023-07-20T13:28:42;18.38;;;6.65;;
80195;SDS011;69516;42.050;21.516;2023-07-20T13:31:08;14.45;;;6.53;;
80195;SDS011;69516;42.050;21.516;2023-07-20T13:33:36;12.88;;;6.47;;
80195;SDS011;69516;42.050;21.516;2023-07-20T13:36:02;14.60;;;6.35;;
80195;SDS011;69516;42.050;21.516;2023-07-20T13:38:30;14.23;;;6.93;;
80195;SDS011;69516;42.050;21.516;2023-07-20T13:40:57;14.38;;;6.93;;
80195;SDS011;69516;42.050;21.516;2023-07-20T13:43:23;15.57;;;7.25;;
80195;SDS011;69516;42.050;21.516;2023-07-20T13:45:50;15.07;;;6.65;;
80195;SDS011;69516;42.050;21.516;2023-07-20T13:48:16;14.48;;;6.93;;
80195;SDS011;69516;42.050;21.516;2023-07-20T13:53:10;15.68;;;6.78;;
80195;SDS011;69516;42.050;21.516;2023-07-20T13:55:36;16.58;;;6.75;;
80195;SDS011;69516;42.050;21.516;2023-07-20T13:58:03;17.48;;;6.55;;
80195;SDS011;69516;42.050;21.516;2023-07-20T14:00:29;14.77;;;7.05;;
80195;SDS011;69516;42.050;21.516;2023-07-20T14:03:00;14.93;;;6.47;;
80195;SDS011;69516;42.050;21.516;2023-07-20T14:05:26;12.38;;;6.13;;
80195;SDS011;69516;42.050;21.516;2023-07-20T14:07:53;14.55;;;6.70;;
80195;SDS011;69516;42.050;21.516;2023-07-20T14:10:19;13.40;;;6.50;;
80195;SDS011;69516;42.050;21.516;2023-07-20T14:12:45;14.98;;;6.50;;
80195;SDS011;69516;42.050;21.516;2023-07-20T14:15:12;13.82;;;6.53;;
80195;SDS011;69516;42.050;21.516;2023-07-20T14:17:38;13.25;;;6.03;;
80195;SDS011;69516;42.050;21.516;2023-07-20T14:20:04;13.88;;;6.50;;
80195;SDS011;69516;42.050;21.516;2023-07-20T14:22:31;14.90;;;6.22;;
80195;SDS011;69516;42.050;21.516;2023-07-20T14:24:58;14.73;;;6.72;;
80195;SDS011;69516;42.050;21.516;2023-07-20T14:27:24;14.60;;;6.57;;
80195;SDS011;69516;42.050;21.516;2023-07-20T14:29:50;12.60;;;6.15;;
80195;SDS011;69516;42.050;21.516;2023-07-20T14:32:18;12.98;;;6.05;;
80195;SDS011;69516;42.050;21.516;2023-07-20T14:34:44;14.32;;;5.90;;
80195;SDS011;69516;42.050;21.516;2023-07-20T14:37:10;13.55;;;6.45;;
80195;SDS011;69516;42.050;21.516;2023-07-20T14:39:38;14.52;;;6.38;;
80195;SDS011;69516;42.050;21.516;2023-07-20T14:42:04;14.80;;;6.68;;